createdAt,value
2022-12-25T00:02:15.085Z,48.29
2022-12-25T00:04:41.982Z,48.80
2022-12-25T00:07:09.235Z,49.10
2022-12-25T00:09:36.071Z,48.61
2022-12-25T00:12:02.973Z,49.42
2022-12-25T00:14:30.049Z,49.25
2022-12-25T00:16:56.870Z,49.00
2022-12-25T00:19:23.668Z,48.77
2022-12-25T00:21:52.849Z,48.34
2022-12-25T00:24:19.616Z,48.12
2022-12-25T00:26:46.442Z,48.68
2022-12-25T00:29:13.241Z,48.88
2022-12-25T00:31:40.156Z,49.27
2022-12-25T00:34:06.909Z,48.87
2022-12-25T00:36:41.141Z,48.98
2022-12-25T00:39:08.788Z,48.82
2022-12-25T00:41:36.026Z,48.12
2022-12-25T00:44:03.116Z,48.48
2022-12-25T00:46:30.062Z,48.18
2022-12-25T00:48:57.120Z,48.66
2022-12-25T00:51:24.054Z,48.93
2022-12-25T00:53:50.861Z,49.15
2022-12-25T00:56:17.680Z,48.53
2022-12-25T00:58:44.527Z,47.56
2022-12-25T01:01:11.412Z,47.07
2022-12-25T01:03:38.237Z,46.34
2022-12-25T01:06:05.041Z,46.69
2022-12-25T01:08:31.965Z,46.29
2022-12-25T01:10:58.909Z,46.16
2022-12-25T01:13:26.807Z,46.22
2022-12-25T01:15:53.678Z,46.63
2022-12-25T01:18:20.485Z,46.36
2022-12-25T01:20:47.314Z,46.21
2022-12-25T01:23:14.691Z,46.82
2022-12-25T01:25:41.522Z,47.19
2022-12-25T01:28:08.396Z,47.34
2022-12-25T01:30:35.191Z,47.16
2022-12-25T01:33:02.387Z,47.25
2022-12-25T01:35:29.305Z,47.49
2022-12-25T01:37:56.080Z,47.98
2022-12-25T01:40:22.885Z,47.34
2022-12-25T01:42:49.738Z,47.48
2022-12-25T01:45:16.669Z,48.00
2022-12-25T01:47:43.552Z,47.61
2022-12-25T01:50:10.304Z,47.32
2022-12-25T01:52:37.163Z,47.92
2022-12-25T01:55:04.059Z,47.96
2022-12-25T01:57:30.913Z,47.16
2022-12-25T01:59:57.762Z,46.96
2022-12-25T02:02:24.755Z,47.62
2022-12-25T02:04:52.337Z,47.81
2022-12-25T02:07:19.241Z,48.25
2022-12-25T02:09:46.372Z,48.37
2022-12-25T02:12:13.211Z,47.96
2022-12-25T02:14:40.325Z,47.62
2022-12-25T02:17:07.295Z,47.21
2022-12-25T02:19:34.398Z,47.35
2022-12-25T02:22:01.366Z,47.37
2022-12-25T02:24:28.406Z,47.14
2022-12-25T02:26:55.633Z,47.47
2022-12-25T02:29:22.751Z,46.83
2022-12-25T02:31:50.060Z,47.62
2022-12-25T02:34:16.888Z,47.80
2022-12-25T02:36:43.977Z,47.38
2022-12-25T02:39:12.463Z,47.38
2022-12-25T02:41:39.305Z,47.37
2022-12-25T02:44:06.255Z,47.32
2022-12-25T02:46:33.441Z,47.52
2022-12-25T02:49:01.132Z,47.42
2022-12-25T02:51:28.250Z,47.66
2022-12-25T02:53:55.565Z,47.11
2022-12-25T02:56:23.672Z,47.26
2022-12-25T02:58:50.454Z,47.05
2022-12-25T03:01:17.524Z,47.06
2022-12-25T03:03:44.512Z,47.29
2022-12-25T03:06:11.595Z,47.00
2022-12-25T03:08:38.329Z,46.74
2022-12-25T03:11:05.298Z,47.10
2022-12-25T03:13:33.912Z,47.48
2022-12-25T03:16:00.684Z,47.30
2022-12-25T03:18:27.574Z,47.06
2022-12-25T03:20:54.429Z,47.27
2022-12-25T03:23:21.354Z,47.21
2022-12-25T03:25:48.395Z,46.95
2022-12-25T03:28:15.279Z,47.58
2022-12-25T03:30:42.178Z,47.40
2022-12-25T03:33:36.633Z,47.13
2022-12-25T03:35:55.921Z,47.52
2022-12-25T03:38:22.762Z,47.67
2022-12-25T03:40:49.785Z,47.63
2022-12-25T03:43:16.818Z,47.49
2022-12-25T03:45:43.674Z,48.08
2022-12-25T03:48:11.875Z,48.04
2022-12-25T03:50:38.678Z,48.13
2022-12-25T03:53:05.464Z,47.99
2022-12-25T03:55:32.558Z,48.60
2022-12-25T03:57:59.423Z,48.26
2022-12-25T04:00:26.205Z,48.17
2022-12-25T04:02:53.674Z,48.37
2022-12-25T04:05:20.545Z,48.20
2022-12-25T04:07:47.394Z,47.93
2022-12-25T04:10:14.225Z,48.04
2022-12-25T04:12:41.126Z,48.23
2022-12-25T04:15:08.186Z,47.97
2022-12-25T04:17:35.327Z,47.71
2022-12-25T04:20:02.132Z,47.52
2022-12-25T04:22:28.961Z,47.53
2022-12-25T04:24:55.921Z,47.52
2022-12-25T04:27:22.630Z,47.25
2022-12-25T04:29:49.523Z,47.20
2022-12-25T04:32:18.874Z,47.83
2022-12-25T04:34:45.657Z,47.69
2022-12-25T04:37:12.423Z,47.76
2022-12-25T04:39:39.234Z,47.87
2022-12-25T04:42:06.429Z,48.02
2022-12-25T04:44:33.173Z,48.11
2022-12-25T04:47:02.540Z,47.92
2022-12-25T04:49:33.020Z,48.18
2022-12-25T04:51:59.792Z,48.01
2022-12-25T04:54:26.637Z,48.04
2022-12-25T04:56:53.511Z,48.15
2022-12-25T04:59:20.340Z,48.15
2022-12-25T05:01:47.191Z,48.34
2022-12-25T05:04:14.114Z,48.43
2022-12-25T05:06:41.364Z,48.64
2022-12-25T05:09:08.333Z,48.51
2022-12-25T05:11:35.182Z,48.66
2022-12-25T05:14:02.144Z,48.98
2022-12-25T05:16:29.150Z,48.90
2022-12-25T05:18:56.296Z,48.84
2022-12-25T05:21:23.187Z,48.83
2022-12-25T05:23:49.974Z,48.81
2022-12-25T05:26:17.533Z,49.08
2022-12-25T05:28:44.602Z,48.97
2022-12-25T05:31:11.572Z,48.85
2022-12-25T05:33:38.390Z,48.84
2022-12-25T05:36:05.323Z,48.57
2022-12-25T05:38:32.456Z,48.76
2022-12-25T05:40:59.295Z,49.03
2022-12-25T05:43:26.201Z,48.92
2022-12-25T05:45:53.292Z,49.15
2022-12-25T05:48:20.095Z,49.26
2022-12-25T05:50:46.894Z,48.90
2022-12-25T05:53:14.094Z,49.18
2022-12-25T05:55:40.950Z,49.01
2022-12-25T05:58:07.931Z,49.08
2022-12-25T06:00:34.801Z,49.32
2022-12-25T06:03:01.721Z,49.32
2022-12-25T06:05:28.673Z,49.22
2022-12-25T06:07:55.828Z,49.30
2022-12-25T06:10:22.782Z,49.24
2022-12-25T06:12:49.845Z,49.26
2022-12-25T06:15:16.864Z,49.50
2022-12-25T06:17:43.763Z,49.54
2022-12-25T06:20:10.628Z,49.46
2022-12-25T06:22:37.454Z,49.29
2022-12-25T06:25:04.527Z,49.40
2022-12-25T06:27:31.431Z,49.19
2022-12-25T06:29:58.253Z,49.37
2022-12-25T06:32:25.120Z,49.32
2022-12-25T06:34:52.000Z,49.51
2022-12-25T06:37:18.904Z,49.69
2022-12-25T06:39:45.698Z,49.43
2022-12-25T06:42:12.541Z,49.36
2022-12-25T06:44:40.362Z,49.47
2022-12-25T06:47:07.547Z,49.65
2022-12-25T06:49:34.329Z,49.88
2022-12-25T06:52:01.358Z,49.90
2022-12-25T06:54:28.596Z,49.75
2022-12-25T06:56:58.348Z,49.63
2022-12-25T06:59:25.192Z,49.87
2022-12-25T07:01:52.292Z,49.70
2022-12-25T07:04:19.370Z,49.67
2022-12-25T07:06:46.222Z,49.55
2022-12-25T07:09:13.020Z,49.87
2022-12-25T07:11:39.819Z,49.74
2022-12-25T07:14:06.650Z,49.62
2022-12-25T07:16:33.483Z,49.52
2022-12-25T07:19:00.345Z,49.35
2022-12-25T07:21:27.211Z,49.42
2022-12-25T07:23:54.046Z,49.35
2022-12-25T07:26:20.863Z,49.49
2022-12-25T07:28:47.634Z,49.47
2022-12-25T07:31:14.666Z,49.54
2022-12-25T07:33:42.811Z,49.57
2022-12-25T07:36:12.571Z,49.64
2022-12-25T07:38:39.961Z,50.00
2022-12-25T07:41:06.739Z,49.81
2022-12-25T07:43:33.558Z,49.60
2022-12-25T07:46:00.460Z,49.53
2022-12-25T07:48:27.670Z,49.64
2022-12-25T07:50:54.529Z,49.65
2022-12-25T07:53:21.429Z,49.68
2022-12-25T07:55:48.259Z,50.05
2022-12-25T07:58:19.944Z,49.40
2022-12-25T08:00:50.255Z,49.61
2022-12-25T08:03:17.315Z,49.64
2022-12-25T08:05:44.450Z,49.31
2022-12-25T08:08:11.773Z,48.89
2022-12-25T08:10:38.642Z,49.47
2022-12-25T08:13:10.827Z,49.22
2022-12-25T08:15:41.031Z,49.95
2022-12-25T08:18:08.298Z,50.08
2022-12-25T08:20:35.335Z,50.43
2022-12-25T08:23:03.148Z,50.38
2022-12-25T08:25:30.124Z,50.07
2022-12-25T08:27:57.300Z,49.79
2022-12-25T08:30:24.295Z,49.92
2022-12-25T08:32:51.273Z,49.59
2022-12-25T08:35:18.415Z,49.51
2022-12-25T08:37:45.287Z,49.44
2022-12-25T08:40:12.161Z,49.41
2022-12-25T08:42:39.665Z,49.57
2022-12-25T08:45:07.038Z,49.57
2022-12-25T08:47:33.791Z,49.62
2022-12-25T08:50:00.656Z,49.78
2022-12-25T08:52:27.975Z,49.83
2022-12-25T08:54:54.968Z,49.43
2022-12-25T08:57:22.274Z,49.55
2022-12-25T08:59:49.127Z,49.78
2022-12-25T09:02:16.137Z,49.88
2022-12-25T09:04:43.212Z,49.71
2022-12-25T09:07:10.089Z,49.50
2022-12-25T09:09:37.077Z,49.63
2022-12-25T09:12:03.899Z,54.35
2022-12-25T09:14:30.690Z,54.93
2022-12-25T09:16:57.511Z,53.38
2022-12-25T09:19:24.452Z,51.69
2022-12-25T09:21:51.205Z,49.14
2022-12-25T09:24:18.442Z,48.22
2022-12-25T09:26:45.523Z,51.12
2022-12-25T09:29:12.341Z,48.65
2022-12-25T09:31:39.205Z,48.54
2022-12-25T09:34:06.175Z,46.50
2022-12-25T09:36:33.054Z,45.80
2022-12-25T09:38:59.925Z,46.13
2022-12-25T09:41:26.701Z,46.55
2022-12-25T09:43:54.005Z,46.86
2022-12-25T09:46:21.068Z,47.40
2022-12-25T09:48:48.014Z,47.12
2022-12-25T09:51:14.807Z,46.43
2022-12-25T09:53:41.668Z,47.28
2022-12-25T09:56:08.435Z,47.41
2022-12-25T09:58:35.316Z,47.15
2022-12-25T10:01:02.223Z,47.22
2022-12-25T10:03:29.106Z,47.11
2022-12-25T10:05:56.292Z,47.04
2022-12-25T10:08:23.367Z,47.11
2022-12-25T10:10:50.162Z,47.08
2022-12-25T10:13:16.973Z,46.79
2022-12-25T10:15:45.873Z,47.11
2022-12-25T10:18:13.216Z,47.39
2022-12-25T10:20:40.076Z,47.53
2022-12-25T10:23:06.946Z,47.08
2022-12-25T10:25:33.831Z,47.04
2022-12-25T10:28:01.117Z,47.38
2022-12-25T10:30:27.917Z,47.27
2022-12-25T10:32:54.897Z,47.40
2022-12-25T10:35:21.781Z,47.08
2022-12-25T10:37:48.545Z,46.40
2022-12-25T10:40:15.563Z,46.74
2022-12-25T10:42:42.559Z,46.50
2022-12-25T10:45:09.426Z,46.68
2022-12-25T10:47:36.246Z,45.85
2022-12-25T10:50:03.178Z,45.00
2022-12-25T10:52:29.987Z,46.08
2022-12-25T10:54:56.809Z,46.12
2022-12-25T10:57:23.740Z,46.20
2022-12-25T10:59:50.514Z,45.88
2022-12-25T11:02:17.875Z,45.60
2022-12-25T11:04:44.748Z,46.40
2022-12-25T11:07:11.527Z,45.16
2022-12-25T11:09:38.868Z,45.98
2022-12-25T11:12:06.229Z,45.58
2022-12-25T11:14:33.016Z,45.37
2022-12-25T11:17:00.026Z,45.11
2022-12-25T11:19:27.786Z,45.84
2022-12-25T11:21:54.587Z,45.98
2022-12-25T11:24:23.354Z,45.89
2022-12-25T11:26:50.611Z,46.24
2022-12-25T11:29:17.399Z,46.48
2022-12-25T11:31:44.372Z,45.71
2022-12-25T11:34:11.218Z,46.26
2022-12-25T11:36:38.121Z,45.36
2022-12-25T11:39:04.858Z,45.83
2022-12-25T11:41:31.640Z,46.04
2022-12-25T11:43:59.212Z,46.61
2022-12-25T11:46:26.924Z,45.76
2022-12-25T11:48:53.712Z,46.12
2022-12-25T11:51:20.567Z,46.21
2022-12-25T11:53:47.434Z,46.49
2022-12-25T11:56:14.537Z,46.59
2022-12-25T11:58:41.651Z,46.33
2022-12-25T12:01:08.613Z,46.58
2022-12-25T12:03:36.572Z,46.41
2022-12-25T12:06:03.429Z,46.12
2022-12-25T12:08:30.396Z,45.32
2022-12-25T12:10:57.270Z,46.07
2022-12-25T12:13:24.202Z,46.52
2022-12-25T12:15:51.801Z,46.41
2022-12-25T12:18:18.645Z,45.85
2022-12-25T12:20:45.482Z,46.49
2022-12-25T12:23:12.393Z,46.62
2022-12-25T12:25:39.166Z,46.45
2022-12-25T12:28:06.099Z,45.96
2022-12-25T12:30:32.966Z,45.77
2022-12-25T12:32:59.951Z,45.51
2022-12-25T12:35:26.797Z,45.79
2022-12-25T12:37:53.895Z,45.43
2022-12-25T12:40:20.760Z,45.87
2022-12-25T12:42:47.617Z,45.00
2022-12-25T12:45:14.436Z,45.26
2022-12-25T12:47:41.335Z,44.40
2022-12-25T12:50:08.564Z,44.55
2022-12-25T12:52:35.370Z,45.19
2022-12-25T12:55:02.434Z,44.77
2022-12-25T12:57:29.240Z,44.33
2022-12-25T12:59:56.145Z,44.39
2022-12-25T13:02:23.052Z,44.42
2022-12-25T13:04:49.970Z,44.80
2022-12-25T13:07:17.365Z,45.14
2022-12-25T13:09:44.160Z,45.28
2022-12-25T13:12:11.153Z,44.92
2022-12-25T13:14:38.109Z,45.25
2022-12-25T13:17:04.978Z,45.17
2022-12-25T13:19:31.835Z,45.11
2022-12-25T13:21:59.484Z,45.34
2022-12-25T13:24:26.310Z,45.36
2022-12-25T13:26:55.200Z,45.36
2022-12-25T13:29:22.181Z,45.27
2022-12-25T13:31:49.164Z,45.69
2022-12-25T13:34:16.296Z,45.93
2022-12-25T13:36:43.308Z,46.26
2022-12-25T13:39:10.255Z,46.87
2022-12-25T13:41:37.005Z,46.51
2022-12-25T13:44:03.903Z,46.44
2022-12-25T13:46:30.792Z,46.85
2022-12-25T13:48:58.160Z,46.51
2022-12-25T13:51:26.904Z,46.71
2022-12-25T13:53:53.711Z,47.01
2022-12-25T13:56:20.549Z,47.01
2022-12-25T13:58:47.298Z,47.22
2022-12-25T14:01:14.207Z,47.15
2022-12-25T14:03:41.099Z,47.42
2022-12-25T14:06:08.089Z,47.57
2022-12-25T14:08:34.886Z,47.59
2022-12-25T14:11:01.732Z,47.71
2022-12-25T14:13:28.595Z,48.59
2022-12-25T14:15:55.401Z,48.88
2022-12-25T14:18:22.190Z,48.30
2022-12-25T14:20:49.018Z,48.13
2022-12-25T14:23:15.876Z,48.12
2022-12-25T14:25:42.671Z,48.85
2022-12-25T14:28:09.431Z,49.09
2022-12-25T14:30:36.370Z,49.15
2022-12-25T14:33:03.256Z,49.70
2022-12-25T14:35:31.340Z,49.70
2022-12-25T14:37:58.133Z,50.47
2022-12-25T14:40:25.017Z,49.97
2022-12-25T14:42:51.917Z,50.20
2022-12-25T14:45:18.694Z,50.24
2022-12-25T14:47:45.436Z,50.31
2022-12-25T14:50:12.214Z,50.05
2022-12-25T14:52:39.031Z,49.71
2022-12-25T14:55:05.826Z,49.57
2022-12-25T14:57:33.019Z,49.72
2022-12-25T14:59:59.888Z,49.98
2022-12-25T15:02:26.950Z,50.22
2022-12-25T15:04:53.825Z,50.09
2022-12-25T15:07:20.746Z,49.84
2022-12-25T15:09:49.136Z,49.81
2022-12-25T15:12:15.998Z,49.79
2022-12-25T15:14:42.935Z,49.71
2022-12-25T15:17:09.844Z,50.04
2022-12-25T15:19:38.177Z,50.02
2022-12-25T15:22:09.160Z,50.10
2022-12-25T15:24:36.037Z,49.96
2022-12-25T15:27:02.868Z,49.83
2022-12-25T15:30:07.948Z,50.04
2022-12-25T15:32:16.466Z,50.29
2022-12-25T15:34:43.335Z,49.96
2022-12-25T15:37:10.158Z,49.94
2022-12-25T15:39:36.974Z,49.95
2022-12-25T15:42:03.911Z,50.06
2022-12-25T15:44:30.773Z,50.02
2022-12-25T15:46:57.711Z,50.42
2022-12-25T15:49:24.580Z,50.62
2022-12-25T15:51:51.898Z,50.29
2022-12-25T15:54:18.664Z,50.01
2022-12-25T15:56:45.908Z,50.09
2022-12-25T15:59:14.366Z,50.13
2022-12-25T16:01:41.421Z,49.98
2022-12-25T16:04:08.585Z,50.22
2022-12-25T16:06:35.606Z,50.16
2022-12-25T16:09:02.415Z,50.05
2022-12-25T16:11:29.605Z,50.21
2022-12-25T16:13:56.652Z,50.09
2022-12-25T16:16:23.549Z,50.23
2022-12-25T16:18:50.661Z,50.24
2022-12-25T16:21:17.506Z,50.14
2022-12-25T16:23:44.435Z,50.27
2022-12-25T16:26:11.402Z,50.22
2022-12-25T16:28:38.344Z,50.10
2022-12-25T16:31:05.183Z,50.26
2022-12-25T16:33:32.017Z,49.92
2022-12-25T16:35:58.827Z,50.08
2022-12-25T16:38:25.711Z,50.16
2022-12-25T16:40:52.689Z,50.24
2022-12-25T16:43:23.964Z,50.45
2022-12-25T16:45:51.301Z,50.85
2022-12-25T16:48:18.431Z,49.86
2022-12-25T16:50:45.783Z,49.97
2022-12-25T16:53:12.701Z,49.94
2022-12-25T16:55:39.536Z,49.75
2022-12-25T16:58:07.342Z,49.85
2022-12-25T17:00:34.245Z,49.88
2022-12-25T17:03:02.005Z,50.04
2022-12-25T17:05:29.302Z,49.87
2022-12-25T17:07:56.120Z,50.71
2022-12-25T17:10:23.223Z,49.38
2022-12-25T17:12:50.180Z,50.08
2022-12-25T17:15:17.046Z,51.44
2022-12-25T17:17:46.475Z,50.81
2022-12-25T17:20:16.354Z,51.46
2022-12-25T17:22:43.236Z,49.80
2022-12-25T17:25:10.103Z,50.45
2022-12-25T17:27:36.937Z,49.90
2022-12-25T17:30:03.755Z,50.00
2022-12-25T17:32:30.576Z,49.79
2022-12-25T17:34:57.642Z,49.49
2022-12-25T17:37:24.823Z,49.72
2022-12-25T17:39:52.104Z,49.69
2022-12-25T17:42:18.906Z,49.89
2022-12-25T17:44:45.741Z,49.94
2022-12-25T17:47:12.639Z,49.87
2022-12-25T17:49:40.533Z,49.92
2022-12-25T17:52:08.050Z,49.91
2022-12-25T17:54:34.873Z,49.99
2022-12-25T17:57:01.813Z,50.31
2022-12-25T17:59:29.113Z,50.29
2022-12-25T18:01:56.232Z,50.41
2022-12-25T18:04:23.153Z,50.00
2022-12-25T18:06:50.070Z,50.34
2022-12-25T18:09:16.961Z,50.13
2022-12-25T18:11:43.996Z,50.08
2022-12-25T18:14:12.974Z,50.12
2022-12-25T18:16:40.320Z,50.01
2022-12-25T18:19:07.140Z,50.28
2022-12-25T18:21:34.199Z,50.45
2022-12-25T18:24:01.018Z,50.43
2022-12-25T18:26:28.078Z,50.31
2022-12-25T18:28:55.095Z,50.35
2022-12-25T18:31:21.932Z,50.44
2022-12-25T18:33:49.477Z,50.24
2022-12-25T18:36:16.390Z,50.18
2022-12-25T18:38:44.614Z,50.30
2022-12-25T18:41:11.480Z,50.53
2022-12-25T18:43:53.807Z,50.58
2022-12-25T18:46:22.121Z,50.48
2022-12-25T18:48:49.127Z,50.11
2022-12-25T18:51:15.987Z,50.67
2022-12-25T18:53:42.761Z,50.37
2022-12-25T18:56:09.573Z,50.28
2022-12-25T18:58:36.362Z,50.11
2022-12-25T19:01:03.597Z,50.25
2022-12-25T19:03:30.460Z,50.36
2022-12-25T19:05:57.349Z,50.30
2022-12-25T19:08:24.179Z,50.34
2022-12-25T19:10:51.004Z,49.93
2022-12-25T19:13:18.110Z,50.11
2022-12-25T19:15:44.976Z,49.91
2022-12-25T19:18:12.059Z,50.25
2022-12-25T19:20:39.096Z,49.93
2022-12-25T19:23:06.184Z,50.26
2022-12-25T19:25:32.971Z,50.10
2022-12-25T19:27:59.905Z,49.41
2022-12-25T19:30:26.915Z,50.27
2022-12-25T19:32:54.018Z,49.98
2022-12-25T19:35:22.873Z,50.24
2022-12-25T19:37:50.738Z,50.08
2022-12-25T19:40:17.846Z,50.15
2022-12-25T19:42:45.731Z,50.35
2022-12-25T19:45:13.644Z,50.07
2022-12-25T19:47:40.558Z,49.68
2022-12-25T19:50:07.399Z,50.14
2022-12-25T19:52:34.203Z,49.85
2022-12-25T19:55:02.164Z,49.14
2022-12-25T19:57:28.963Z,49.87
2022-12-25T19:59:56.024Z,49.83
2022-12-25T20:02:22.931Z,49.96
2022-12-25T20:04:50.178Z,50.09
2022-12-25T20:07:17.057Z,50.26
2022-12-25T20:09:43.989Z,50.10
2022-12-25T20:12:10.781Z,50.20
2022-12-25T20:14:37.561Z,49.88
2022-12-25T20:17:04.438Z,50.16
2022-12-25T20:19:31.407Z,50.33
2022-12-25T20:21:58.303Z,50.28
2022-12-25T20:24:26.556Z,50.28
2022-12-25T20:26:58.805Z,50.25
2022-12-25T20:29:26.268Z,50.08
2022-12-25T20:31:53.225Z,50.19
2022-12-25T20:34:20.062Z,49.87
2022-12-25T20:36:47.153Z,50.21
2022-12-25T20:39:14.349Z,50.14
2022-12-25T20:41:43.322Z,50.69
2022-12-25T20:44:10.501Z,50.59
2022-12-25T20:46:37.522Z,50.63
2022-12-25T20:49:04.491Z,50.69
2022-12-25T20:51:31.381Z,51.16
2022-12-25T20:53:58.251Z,51.01
2022-12-25T20:56:25.194Z,50.68
2022-12-25T20:58:52.110Z,50.85
2022-12-25T21:01:19.119Z,50.82
2022-12-25T21:03:46.617Z,50.81
2022-12-25T21:06:13.483Z,51.24
2022-12-25T21:08:40.426Z,51.74
2022-12-25T21:11:07.293Z,54.51
2022-12-25T21:13:36.553Z,55.75
2022-12-25T21:16:03.541Z,52.95
2022-12-25T21:18:30.564Z,51.57
2022-12-25T21:20:58.351Z,51.32
2022-12-25T21:23:25.495Z,51.59
2022-12-25T21:25:52.401Z,51.38
2022-12-25T21:28:19.326Z,51.00
2022-12-25T21:30:46.334Z,51.23
2022-12-25T21:33:16.854Z,50.97
2022-12-25T21:35:44.351Z,50.65
2022-12-25T21:38:11.254Z,51.32
2022-12-25T21:40:38.426Z,51.26
2022-12-25T21:43:07.403Z,50.97
2022-12-25T21:45:34.659Z,51.34
2022-12-25T21:48:03.327Z,51.51
2022-12-25T21:50:34.662Z,51.26
2022-12-25T21:53:04.397Z,51.12
2022-12-25T21:55:31.277Z,51.15
2022-12-25T21:57:58.328Z,50.51
2022-12-25T22:00:25.591Z,51.34
2022-12-25T22:02:52.436Z,51.19
2022-12-25T22:05:20.507Z,51.08
2022-12-25T22:07:47.312Z,50.33
2022-12-25T22:10:14.275Z,50.89
2022-12-25T22:12:41.381Z,50.46
2022-12-25T22:15:08.234Z,50.48
2022-12-25T22:17:35.083Z,50.23
2022-12-25T22:20:02.008Z,50.31
2022-12-25T22:22:31.391Z,50.47
2022-12-25T22:24:58.234Z,50.89
2022-12-25T22:27:25.245Z,51.35
2022-12-25T22:29:52.597Z,51.63
2022-12-25T22:32:19.538Z,51.06
2022-12-25T22:34:46.420Z,51.19
2022-12-25T22:37:13.544Z,51.47
2022-12-25T22:39:40.367Z,51.61
2022-12-25T22:42:07.187Z,51.50
2022-12-25T22:44:34.063Z,51.17
2022-12-25T22:47:00.885Z,51.13
2022-12-25T22:49:27.671Z,51.49
2022-12-25T22:51:54.508Z,52.04
2022-12-25T22:54:21.467Z,58.60
2022-12-25T22:56:48.396Z,56.82
2022-12-25T22:59:15.205Z,58.18
2022-12-25T23:01:42.141Z,53.84
2022-12-25T23:04:11.158Z,51.98
2022-12-25T23:06:38.052Z,52.26
2022-12-25T23:09:04.861Z,51.62
2022-12-25T23:11:31.739Z,51.46
2022-12-25T23:13:58.541Z,50.82
2022-12-25T23:16:25.532Z,50.80
2022-12-25T23:18:52.423Z,51.41
2022-12-25T23:21:19.201Z,51.27
2022-12-25T23:23:46.042Z,51.29
2022-12-25T23:26:12.909Z,51.52
2022-12-25T23:28:39.682Z,51.36
2022-12-25T23:31:06.594Z,51.44
2022-12-25T23:33:33.660Z,51.21
2022-12-25T23:36:00.562Z,51.59
2022-12-25T23:38:27.454Z,51.41
2022-12-25T23:40:54.377Z,51.15
2022-12-25T23:43:21.203Z,51.95
2022-12-25T23:45:48.052Z,51.54
2022-12-25T23:48:15.012Z,51.68
2022-12-25T23:50:41.922Z,52.16
2022-12-25T23:53:08.742Z,52.19
2022-12-25T23:55:35.550Z,52.23
2022-12-25T23:58:03.593Z,52.24
